sensor_id;sensor_type;location;lat;lon;timestamp;pressure;altitude;pressure_sealevel;temperature;humidity
21547;BME280;41275;51.912;4.388;2023-08-31T00:04:41;100815.22;;;21.17;52.59
21547;BME280;41275;51.912;4.388;2023-08-31T00:10:04;100822.13;;;21.37;52.38
21547;BME280;41275;51.912;4.388;2023-08-31T00:15:30;100866.38;;;20.98;52.01
21547;BME280;41275;51.912;4.388;2023-08-31T00:20:53;100860.56;;;19.54;53.31
21547;BME280;41275;51.912;4.388;2023-08-31T00:26:15;100830.50;;;18.99;54.22
21547;BME280;41275;51.912;4.388;2023-08-31T00:31:37;100825.53;;;18.87;54.93
21547;BME280;41275;51.912;4.388;2023-08-31T00:36:58;100824.53;;;19.07;55.05
21547;BME280;41275;51.912;4.388;2023-08-31T00:42:20;100827.72;;;19.09;55.25
21547;BME280;41275;51.912;4.388;2023-08-31T00:47:42;100822.50;;;18.94;55.63
21547;BME280;41275;51.912;4.388;2023-08-31T00:53:03;100821.00;;;18.82;56.01
21547;BME280;41275;51.912;4.388;2023-08-31T00:58:25;100821.28;;;18.81;56.30
21547;BME280;41275;51.912;4.388;2023-08-31T01:10:01;100815.91;;;18.81;56.60
21547;BME280;41275;51.912;4.388;2023-08-31T01:15:27;100811.88;;;18.83;56.94
21547;BME280;41275;51.912;4.388;2023-08-31T01:21:25;100818.88;;;19.08;56.83
21547;BME280;41275;51.912;4.388;2023-08-31T01:26:48;100814.50;;;19.18;56.96
21547;BME280;41275;51.912;4.388;2023-08-31T01:32:09;100810.22;;;19.17;57.11
21547;BME280;41275;51.912;4.388;2023-08-31T01:37:39;100805.25;;;19.29;57.00
21547;BME280;41275;51.912;4.388;2023-08-31T01:43:06;100814.22;;;19.43;57.05
21547;BME280;41275;51.912;4.388;2023-08-31T01:48:27;100809.44;;;19.40;57.10
21547;BME280;41275;51.912;4.388;2023-08-31T01:53:48;100812.69;;;19.37;57.05
21547;BME280;41275;51.912;4.388;2023-08-31T01:59:09;100810.81;;;19.37;57.37
21547;BME280;41275;51.912;4.388;2023-08-31T02:04:31;100818.22;;;19.22;57.40
21547;BME280;41275;51.912;4.388;2023-08-31T02:09:52;100815.94;;;19.10;58.07
21547;BME280;41275;51.912;4.388;2023-08-31T02:15:13;100816.72;;;19.10;58.06
21547;BME280;41275;51.912;4.388;2023-08-31T02:20:34;100825.28;;;19.12;58.13
21547;BME280;41275;51.912;4.388;2023-08-31T02:25:56;100821.94;;;18.97;58.45
21547;BME280;41275;51.912;4.388;2023-08-31T02:31:17;100818.50;;;18.91;58.30
21547;BME280;41275;51.912;4.388;2023-08-31T02:36:39;100817.97;;;18.89;58.32
21547;BME280;41275;51.912;4.388;2023-08-31T02:42:00;100822.59;;;18.83;58.14
21547;BME280;41275;51.912;4.388;2023-08-31T02:47:22;100823.69;;;18.82;58.39
21547;BME280;41275;51.912;4.388;2023-08-31T02:52:43;100829.25;;;18.91;58.04
21547;BME280;41275;51.912;4.388;2023-08-31T02:58:04;100830.69;;;19.07;57.68
21547;BME280;41275;51.912;4.388;2023-08-31T03:03:25;100834.47;;;19.06;57.70
21547;BME280;41275;51.912;4.388;2023-08-31T03:08:46;100834.09;;;19.18;57.60
21547;BME280;41275;51.912;4.388;2023-08-31T03:14:08;100825.66;;;19.30;57.02
21547;BME280;41275;51.912;4.388;2023-08-31T03:19:30;100818.50;;;19.20;56.51
21547;BME280;41275;51.912;4.388;2023-08-31T03:24:52;100822.31;;;19.14;56.07
21547;BME280;41275;51.912;4.388;2023-08-31T03:30:13;100809.47;;;19.11;55.61
21547;BME280;41275;51.912;4.388;2023-08-31T03:35:34;100817.22;;;19.12;55.17
21547;BME280;41275;51.912;4.388;2023-08-31T03:40:55;100817.13;;;19.23;54.65
21547;BME280;41275;51.912;4.388;2023-08-31T03:46:17;100822.50;;;19.23;54.25
21547;BME280;41275;51.912;4.388;2023-08-31T03:51:38;100828.09;;;19.26;53.68
21547;BME280;41275;51.912;4.388;2023-08-31T03:56:59;100833.97;;;19.28;53.20
21547;BME280;41275;51.912;4.388;2023-08-31T04:02:21;100833.34;;;19.36;53.07
21547;BME280;41275;51.912;4.388;2023-08-31T04:07:42;100838.94;;;19.40;52.82
21547;BME280;41275;51.912;4.388;2023-08-31T04:13:03;100837.84;;;19.41;52.41
21547;BME280;41275;51.912;4.388;2023-08-31T04:18:24;100838.28;;;19.53;52.31
21547;BME280;41275;51.912;4.388;2023-08-31T04:23:46;100843.47;;;19.69;51.89
21547;BME280;41275;51.912;4.388;2023-08-31T04:29:07;100849.59;;;19.74;52.12
21547;BME280;41275;51.912;4.388;2023-08-31T04:34:28;100857.81;;;19.83;51.40
21547;BME280;41275;51.912;4.388;2023-08-31T04:39:49;100856.69;;;19.89;51.15
21547;BME280;41275;51.912;4.388;2023-08-31T04:45:10;100863.41;;;19.86;50.94
21547;BME280;41275;51.912;4.388;2023-08-31T04:50:33;100857.72;;;19.93;50.64
21547;BME280;41275;51.912;4.388;2023-08-31T04:55:54;100863.38;;;20.10;50.24
21547;BME280;41275;51.912;4.388;2023-08-31T05:01:15;100865.84;;;20.07;49.95
21547;BME280;41275;51.912;4.388;2023-08-31T05:06:37;100877.38;;;20.07;49.92
21547;BME280;41275;51.912;4.388;2023-08-31T05:11:58;100880.94;;;20.03;49.98
21547;BME280;41275;51.912;4.388;2023-08-31T05:17:21;100889.31;;;20.01;50.10
21547;BME280;41275;51.912;4.388;2023-08-31T05:22:42;100889.94;;;20.12;50.13
21547;BME280;41275;51.912;4.388;2023-08-31T05:28:04;100892.09;;;20.34;49.67
21547;BME280;41275;51.912;4.388;2023-08-31T05:33:25;100905.66;;;20.43;49.56
21547;BME280;41275;51.912;4.388;2023-08-31T05:38:48;100910.41;;;20.32;49.61
21547;BME280;41275;51.912;4.388;2023-08-31T05:44:11;100899.94;;;20.30;49.62
21547;BME280;41275;51.912;4.388;2023-08-31T05:49:33;100914.34;;;20.40;49.67
21547;BME280;41275;51.912;4.388;2023-08-31T05:54:55;100916.66;;;20.46;49.64
21547;BME280;41275;51.912;4.388;2023-08-31T06:00:16;100928.09;;;20.57;49.70
21547;BME280;41275;51.912;4.388;2023-08-31T06:05:38;100925.53;;;20.66;49.34
21547;BME280;41275;51.912;4.388;2023-08-31T06:10:59;100924.31;;;20.77;49.17
21547;BME280;41275;51.912;4.388;2023-08-31T06:16:20;100924.38;;;20.91;49.19
21547;BME280;41275;51.912;4.388;2023-08-31T06:21:42;100930.91;;;21.03;48.89
21547;BME280;41275;51.912;4.388;2023-08-31T06:27:03;100930.94;;;21.17;48.63
21547;BME280;41275;51.912;4.388;2023-08-31T06:32:25;100936.81;;;21.38;48.60
21547;BME280;41275;51.912;4.388;2023-08-31T06:37:48;100934.84;;;21.58;48.18
21547;BME280;41275;51.912;4.388;2023-08-31T06:43:11;100944.44;;;21.77;47.74
21547;BME280;41275;51.912;4.388;2023-08-31T06:48:32;100952.41;;;21.96;47.50
21547;BME280;41275;51.912;4.388;2023-08-31T06:53:54;100949.41;;;22.12;47.24
21547;BME280;41275;51.912;4.388;2023-08-31T06:59:15;100958.22;;;22.31;46.87
21547;BME280;41275;51.912;4.388;2023-08-31T07:04:36;100955.72;;;22.48;46.60
21547;BME280;41275;51.912;4.388;2023-08-31T07:09:58;100967.25;;;22.63;46.15
21547;BME280;41275;51.912;4.388;2023-08-31T07:15:19;100963.41;;;22.77;45.48
21547;BME280;41275;51.912;4.388;2023-08-31T07:20:40;100965.28;;;22.91;45.14
21547;BME280;41275;51.912;4.388;2023-08-31T07:26:01;100977.16;;;23.03;44.08
21547;BME280;41275;51.912;4.388;2023-08-31T07:31:25;100976.28;;;23.17;44.02
21547;BME280;41275;51.912;4.388;2023-08-31T07:36:46;100980.72;;;23.35;43.98
21547;BME280;41275;51.912;4.388;2023-08-31T07:42:07;100991.06;;;23.42;43.44
21547;BME280;41275;51.912;4.388;2023-08-31T07:47:29;101001.59;;;23.52;43.14
21547;BME280;41275;51.912;4.388;2023-08-31T07:52:50;100995.63;;;23.64;43.16
21547;BME280;41275;51.912;4.388;2023-08-31T07:58:11;100996.03;;;23.71;42.75
21547;BME280;41275;51.912;4.388;2023-08-31T08:03:32;101001.19;;;23.59;42.45
21547;BME280;41275;51.912;4.388;2023-08-31T08:08:54;101005.47;;;23.60;42.32
21547;BME280;41275;51.912;4.388;2023-08-31T08:14:15;101007.31;;;23.73;42.04
21547;BME280;41275;51.912;4.388;2023-08-31T08:19:36;101021.53;;;23.87;41.87
21547;BME280;41275;51.912;4.388;2023-08-31T08:24:57;101020.69;;;24.09;41.31
21547;BME280;41275;51.912;4.388;2023-08-31T08:30:19;101025.16;;;24.14;41.00
21547;BME280;41275;51.912;4.388;2023-08-31T08:35:40;101025.63;;;24.64;40.59
21547;BME280;41275;51.912;4.388;2023-08-31T08:41:07;101026.25;;;24.70;40.20
21547;BME280;41275;51.912;4.388;2023-08-31T08:46:31;101040.25;;;24.63;39.89
21547;BME280;41275;51.912;4.388;2023-08-31T08:51:53;101048.41;;;24.89;39.63
21547;BME280;41275;51.912;4.388;2023-08-31T08:57:14;101049.22;;;24.98;39.22
21547;BME280;41275;51.912;4.388;2023-08-31T09:02:36;101054.78;;;24.85;38.98
21547;BME280;41275;51.912;4.388;2023-08-31T09:08:08;101050.66;;;25.05;38.76
21547;BME280;41275;51.912;4.388;2023-08-31T09:13:32;101043.78;;;24.98;38.32
21547;BME280;41275;51.912;4.388;2023-08-31T09:18:55;101061.66;;;25.52;37.97
21547;BME280;41275;51.912;4.388;2023-08-31T09:24:16;101053.31;;;25.65;37.80
21547;BME280;41275;51.912;4.388;2023-08-31T09:29:45;101050.03;;;25.34;37.39
21547;BME280;41275;51.912;4.388;2023-08-31T09:35:08;101060.22;;;25.37;37.43
21547;BME280;41275;51.912;4.388;2023-08-31T09:40:30;101061.16;;;25.67;37.28
21547;BME280;41275;51.912;4.388;2023-08-31T09:45:52;101053.19;;;25.79;36.63
21547;BME280;41275;51.912;4.388;2023-08-31T09:51:14;101056.47;;;25.93;35.96
21547;BME280;41275;51.912;4.388;2023-08-31T09:56:41;101069.31;;;26.14;35.64
21547;BME280;41275;51.912;4.388;2023-08-31T10:02:03;101059.31;;;26.06;35.59
21547;BME280;41275;51.912;4.388;2023-08-31T10:07:26;101077.22;;;25.89;35.59
21547;BME280;41275;51.912;4.388;2023-08-31T10:12:50;101074.84;;;25.88;35.66
21547;BME280;41275;51.912;4.388;2023-08-31T10:18:12;101080.75;;;25.64;34.76
21547;BME280;41275;51.912;4.388;2023-08-31T10:23:33;101075.94;;;25.69;34.99
21547;BME280;41275;51.912;4.388;2023-08-31T10:28:57;101087.28;;;25.80;34.49
21547;BME280;41275;51.912;4.388;2023-08-31T10:34:34;101073.31;;;26.08;34.16
21547;BME280;41275;51.912;4.388;2023-08-31T10:40:11;101073.28;;;26.16;33.67
21547;BME280;41275;51.912;4.388;2023-08-31T10:45:43;101077.22;;;25.98;33.61
21547;BME280;41275;51.912;4.388;2023-08-31T10:51:05;101070.44;;;26.13;33.28
21547;BME280;41275;51.912;4.388;2023-08-31T10:56:29;101066.75;;;26.17;32.98
21547;BME280;41275;51.912;4.388;2023-08-31T11:01:58;101067.59;;;26.48;32.95
21547;BME280;41275;51.912;4.388;2023-08-31T11:07:25;101067.13;;;26.46;33.00
21547;BME280;41275;51.912;4.388;2023-08-31T11:12:48;101072.16;;;26.56;32.79
21547;BME280;41275;51.912;4.388;2023-08-31T11:18:10;101069.00;;;26.54;33.04
21547;BME280;41275;51.912;4.388;2023-08-31T11:23:31;101078.16;;;26.70;32.78
21547;BME280;41275;51.912;4.388;2023-08-31T11:28:55;101080.75;;;26.87;32.51
21547;BME280;41275;51.912;4.388;2023-08-31T11:34:18;101066.66;;;26.73;32.46
21547;BME280;41275;51.912;4.388;2023-08-31T11:39:40;101068.06;;;26.50;32.79
21547;BME280;41275;51.912;4.388;2023-08-31T11:45:01;101070.25;;;26.56;33.00
21547;BME280;41275;51.912;4.388;2023-08-31T11:50:26;101074.47;;;26.96;32.95
21547;BME280;41275;51.912;4.388;2023-08-31T11:55:52;101073.59;;;26.83;32.67
21547;BME280;41275;51.912;4.388;2023-08-31T12:01:18;101074.38;;;26.83;32.49
21547;BME280;41275;51.912;4.388;2023-08-31T12:06:41;101073.72;;;27.07;32.33
21547;BME280;41275;51.912;4.388;2023-08-31T12:12:03;101078.22;;;27.12;31.98
21547;BME280;41275;51.912;4.388;2023-08-31T12:17:25;101078.31;;;27.36;31.99
21547;BME280;41275;51.912;4.388;2023-08-31T12:22:47;101081.31;;;27.77;30.71
21547;BME280;41275;51.912;4.388;2023-08-31T12:28:08;101067.09;;;28.41;30.55
21547;BME280;41275;51.912;4.388;2023-08-31T12:33:29;101071.56;;;28.98;30.78
21547;BME280;41275;51.912;4.388;2023-08-31T12:38:50;101085.09;;;29.51;29.17
21547;BME280;41275;51.912;4.388;2023-08-31T12:44:12;101090.06;;;30.21;28.82
21547;BME280;41275;51.912;4.388;2023-08-31T12:49:34;101084.59;;;31.26;27.31
21547;BME280;41275;51.912;4.388;2023-08-31T12:54:55;101089.66;;;31.05;26.99
21547;BME280;41275;51.912;4.388;2023-08-31T13:00:17;101078.75;;;31.47;26.36
21547;BME280;41275;51.912;4.388;2023-08-31T13:05:39;101074.81;;;31.45;25.98
21547;BME280;41275;51.912;4.388;2023-08-31T13:11:01;101084.75;;;31.34;26.44
21547;BME280;41275;51.912;4.388;2023-08-31T13:16:25;101091.41;;;31.98;25.63
21547;BME280;41275;51.912;4.388;2023-08-31T13:21:46;101088.19;;;32.68;25.05
21547;BME280;41275;51.912;4.388;2023-08-31T13:27:07;101077.72;;;32.74;24.55
21547;BME280;41275;51.912;4.388;2023-08-31T13:32:28;101078.59;;;33.12;23.92
21547;BME280;41275;51.912;4.388;2023-08-31T13:37:50;101070.97;;;32.94;23.94
21547;BME280;41275;51.912;4.388;2023-08-31T13:43:11;101081.81;;;32.61;24.13
21547;BME280;41275;51.912;4.388;2023-08-31T13:48:32;101075.34;;;30.76;26.17
21547;BME280;41275;51.912;4.388;2023-08-31T13:53:53;101074.84;;;31.91;24.71
21547;BME280;41275;51.912;4.388;2023-08-31T13:59:15;101076.38;;;31.26;25.08
21547;BME280;41275;51.912;4.388;2023-08-31T14:04:36;101076.34;;;31.85;25.51
21547;BME280;41275;51.912;4.388;2023-08-31T14:09:57;101083.41;;;31.66;25.04
21547;BME280;41275;51.912;4.388;2023-08-31T14:15:19;101080.41;;;31.94;25.26
21547;BME280;41275;51.912;4.388;2023-08-31T14:20:40;101077.47;;;33.16;23.60
21547;BME280;41275;51.912;4.388;2023-08-31T14:26:02;101076.84;;;34.08;23.10
21547;BME280;41275;51.912;4.388;2023-08-31T14:31:24;101075.25;;;33.63;22.44
21547;BME280;41275;51.912;4.388;2023-08-31T14:36:45;101074.19;;;34.23;22.21
21547;BME280;41275;51.912;4.388;2023-08-31T14:42:06;101077.00;;;34.99;21.60
21547;BME280;41275;51.912;4.388;2023-08-31T14:47:28;101081.34;;;32.82;23.13
21547;BME280;41275;51.912;4.388;2023-08-31T14:52:49;101086.78;;;32.02;24.38
21547;BME280;41275;51.912;4.388;2023-08-31T14:58:10;101093.53;;;32.88;23.70
21547;BME280;41275;51.912;4.388;2023-08-31T15:03:31;101100.03;;;33.03;23.57
21547;BME280;41275;51.912;4.388;2023-08-31T15:08:53;101094.13;;;32.44;23.43
21547;BME280;41275;51.912;4.388;2023-08-31T15:14:14;101093.66;;;31.50;24.88
21547;BME280;41275;51.912;4.388;2023-08-31T15:19:35;101089.16;;;30.48;25.84
21547;BME280;41275;51.912;4.388;2023-08-31T15:24:56;101096.91;;;29.83;26.87
21547;BME280;41275;51.912;4.388;2023-08-31T15:30:17;101094.31;;;29.74;27.56
21547;BME280;41275;51.912;4.388;2023-08-31T15:35:39;101094.97;;;30.15;26.88
21547;BME280;41275;51.912;4.388;2023-08-31T15:41:01;101095.06;;;29.31;27.72
21547;BME280;41275;51.912;4.388;2023-08-31T15:46:23;101101.53;;;29.39;27.90
21547;BME280;41275;51.912;4.388;2023-08-31T15:51:44;101098.22;;;29.17;28.71
21547;BME280;41275;51.912;4.388;2023-08-31T15:57:05;101096.81;;;28.71;29.25
21547;BME280;41275;51.912;4.388;2023-08-31T16:02:26;101088.44;;;28.51;29.17
21547;BME280;41275;51.912;4.388;2023-08-31T16:07:48;101099.16;;;28.11;30.27
21547;BME280;41275;51.912;4.388;2023-08-31T16:13:09;101095.06;;;27.93;30.17
21547;BME280;41275;51.912;4.388;2023-08-31T16:18:30;101092.22;;;27.56;30.51
21547;BME280;41275;51.912;4.388;2023-08-31T16:23:51;101101.16;;;27.56;30.37
21547;BME280;41275;51.912;4.388;2023-08-31T16:29:12;101088.09;;;27.50;31.00
21547;BME280;41275;51.912;4.388;2023-08-31T16:34:34;101081.50;;;27.38;31.42
21547;BME280;41275;51.912;4.388;2023-08-31T16:39:55;101092.66;;;27.25;31.79
21547;BME280;41275;51.912;4.388;2023-08-31T16:45:16;101095.94;;;27.30;31.91
21547;BME280;41275;51.912;4.388;2023-08-31T16:50:38;101098.72;;;27.42;32.23
21547;BME280;41275;51.912;4.388;2023-08-31T16:55:59;101093.31;;;27.22;32.15
21547;BME280;41275;51.912;4.388;2023-08-31T17:01:20;101092.44;;;27.96;30.96
21547;BME280;41275;51.912;4.388;2023-08-31T17:06:41;101089.75;;;28.21;31.19
21547;BME280;41275;51.912;4.388;2023-08-31T17:12:03;101108.81;;;28.21;30.67
21547;BME280;41275;51.912;4.388;2023-08-31T17:17:24;101106.47;;;27.86;31.18
21547;BME280;41275;51.912;4.388;2023-08-31T17:22:49;101108.69;;;27.72;31.50
21547;BME280;41275;51.912;4.388;2023-08-31T17:28:10;101101.69;;;27.50;32.09
21547;BME280;41275;51.912;4.388;2023-08-31T17:33:31;101110.31;;;27.10;32.22
21547;BME280;41275;51.912;4.388;2023-08-31T17:38:53;101114.25;;;26.91;32.46
21547;BME280;41275;51.912;4.388;2023-08-31T17:44:15;101113.72;;;26.77;32.67
21547;BME280;41275;51.912;4.388;2023-08-31T17:49:36;101115.88;;;26.63;33.10
21547;BME280;41275;51.912;4.388;2023-08-31T17:54:57;101110.50;;;26.54;33.13
21547;BME280;41275;51.912;4.388;2023-08-31T18:00:19;101102.41;;;26.46;33.20
21547;BME280;41275;51.912;4.388;2023-08-31T18:05:48;101103.19;;;26.46;33.28
21547;BME280;41275;51.912;4.388;2023-08-31T18:11:11;101107.31;;;26.43;33.49
21547;BME280;41275;51.912;4.388;2023-08-31T18:16:33;101095.88;;;26.38;33.69
21547;BME280;41275;51.912;4.388;2023-08-31T18:21:54;101089.53;;;26.25;33.73
21547;BME280;41275;51.912;4.388;2023-08-31T18:27:15;101100.75;;;26.15;33.93
21547;BME280;41275;51.912;4.388;2023-08-31T18:32:36;101100.09;;;26.18;33.68
21547;BME280;41275;51.912;4.388;2023-08-31T18:37:57;101102.81;;;26.18;34.65
21547;BME280;41275;51.912;4.388;2023-08-31T18:43:20;101111.25;;;26.16;34.70
21547;BME280;41275;51.912;4.388;2023-08-31T18:48:41;101107.47;;;26.09;35.69
21547;BME280;41275;51.912;4.388;2023-08-31T18:54:04;101115.47;;;25.97;36.78
21547;BME280;41275;51.912;4.388;2023-08-31T18:59:25;101124.44;;;25.88;37.93
21547;BME280;41275;51.912;4.388;2023-08-31T19:04:46;101126.84;;;25.64;38.60
21547;BME280;41275;51.912;4.388;2023-08-31T19:10:12;101136.38;;;25.61;39.17
21547;BME280;41275;51.912;4.388;2023-08-31T19:15:35;101136.56;;;25.56;39.45
21547;BME280;41275;51.912;4.388;2023-08-31T19:21:00;101130.19;;;25.43;39.93
21547;BME280;41275;51.912;4.388;2023-08-31T19:26:27;101142.00;;;25.39;40.19
21547;BME280;41275;51.912;4.388;2023-08-31T19:31:49;101146.75;;;25.33;40.84
21547;BME280;41275;51.912;4.388;2023-08-31T19:37:10;101140.56;;;25.24;40.97
21547;BME280;41275;51.912;4.388;2023-08-31T19:42:31;101139.09;;;25.09;41.53
21547;BME280;41275;51.912;4.388;2023-08-31T19:47:53;101145.44;;;25.05;41.85
21547;BME280;41275;51.912;4.388;2023-08-31T19:53:16;101135.38;;;25.05;41.95
21547;BME280;41275;51.912;4.388;2023-08-31T19:58:37;101142.41;;;25.06;42.12
21547;BME280;41275;51.912;4.388;2023-08-31T20:03:58;101133.84;;;25.13;42.15
21547;BME280;41275;51.912;4.388;2023-08-31T20:09:19;101141.78;;;25.09;42.29
21547;BME280;41275;51.912;4.388;2023-08-31T20:14:41;101134.59;;;25.05;42.71
21547;BME280;41275;51.912;4.388;2023-08-31T20:20:02;101133.47;;;25.06;42.96
21547;BME280;41275;51.912;4.388;2023-08-31T20:25:24;101142.66;;;24.79;43.40
21547;BME280;41275;51.912;4.388;2023-08-31T20:30:45;101158.84;;;24.61;43.94
21547;BME280;41275;51.912;4.388;2023-08-31T20:36:08;101167.56;;;24.49;44.58
21547;BME280;41275;51.912;4.388;2023-08-31T20:41:29;101170.22;;;24.41;45.15
21547;BME280;41275;51.912;4.388;2023-08-31T20:46:50;101158.78;;;24.21;45.86
21547;BME280;41275;51.912;4.388;2023-08-31T20:52:12;101178.81;;;24.20;46.08
21547;BME280;41275;51.912;4.388;2023-08-31T20:57:35;101167.75;;;24.08;46.62
21547;BME280;41275;51.912;4.388;2023-08-31T21:02:56;101164.44;;;24.11;47.00
21547;BME280;41275;51.912;4.388;2023-08-31T21:08:18;101169.53;;;23.82;47.45
21547;BME280;41275;51.912;4.388;2023-08-31T21:13:39;101178.47;;;23.91;47.53
21547;BME280;41275;51.912;4.388;2023-08-31T21:19:00;101166.97;;;23.85;47.94
21547;BME280;41275;51.912;4.388;2023-08-31T21:24:23;101152.00;;;23.79;48.54
21547;BME280;41275;51.912;4.388;2023-08-31T21:29:44;101163.72;;;23.97;48.42
21547;BME280;41275;51.912;4.388;2023-08-31T21:35:05;101156.69;;;24.18;47.77
21547;BME280;41275;51.912;4.388;2023-08-31T21:40:27;101161.03;;;24.28;47.74
21547;BME280;41275;51.912;4.388;2023-08-31T21:45:48;101160.59;;;24.35;47.13
21547;BME280;41275;51.912;4.388;2023-08-31T21:51:10;101160.28;;;24.36;46.39
21547;BME280;41275;51.912;4.388;2023-08-31T21:56:31;101168.00;;;24.43;46.21
21547;BME280;41275;51.912;4.388;2023-08-31T22:01:52;101167.38;;;24.46;46.19
21547;BME280;41275;51.912;4.388;2023-08-31T22:07:13;101163.25;;;24.48;46.20
21547;BME280;41275;51.912;4.388;2023-08-31T22:12:35;101170.06;;;24.46;46.60
21547;BME280;41275;51.912;4.388;2023-08-31T22:17:56;101166.88;;;24.44;46.94
21547;BME280;41275;51.912;4.388;2023-08-31T22:23:17;101163.88;;;24.45;47.11
21547;BME280;41275;51.912;4.388;2023-08-31T22:28:38;101171.31;;;24.40;47.31
21547;BME280;41275;51.912;4.388;2023-08-31T22:34:00;101172.22;;;24.35;47.20
21547;BME280;41275;51.912;4.388;2023-08-31T22:39:21;101164.84;;;24.27;47.51
21547;BME280;41275;51.912;4.388;2023-08-31T22:44:42;101158.91;;;24.16;47.35
21547;BME280;41275;51.912;4.388;2023-08-31T22:50:04;101159.69;;;24.17;47.11
21547;BME280;41275;51.912;4.388;2023-08-31T22:55:26;101160.63;;;24.12;46.57
21547;BME280;41275;51.912;4.388;2023-08-31T23:00:47;101151.50;;;23.99;46.07
21547;BME280;41275;51.912;4.388;2023-08-31T23:06:09;101153.72;;;23.97;46.25
21547;BME280;41275;51.912;4.388;2023-08-31T23:11:30;101154.94;;;23.91;46.25
21547;BME280;41275;51.912;4.388;2023-08-31T23:16:51;101150.75;;;23.85;46.19
21547;BME280;41275;51.912;4.388;2023-08-31T23:22:12;101132.91;;;23.75;46.29
21547;BME280;41275;51.912;4.388;2023-08-31T23:27:34;101130.16;;;23.67;46.06
21547;BME280;41275;51.912;4.388;2023-08-31T23:32:55;101133.22;;;23.60;46.22
21547;BME280;41275;51.912;4.388;2023-08-31T23:38:16;101132.75;;;23.58;46.04
21547;BME280;41275;51.912;4.388;2023-08-31T23:43:37;101130.94;;;23.53;46.26
21547;BME280;41275;51.912;4.388;2023-08-31T23:48:59;101112.34;;;23.52;46.25
21547;BME280;41275;51.912;4.388;2023-08-31T23:54:20;101119.28;;;23.44;46.32
21547;BME280;41275;51.912;4.388;2023-08-31T23:59:41;101131.41;;;23.33;46.28
